Time;durP1;ratioP1;P1;durP2;ratioP2;P2;SDS_P1;SDS_P2;PMS_P1;PMS_P2;Temp;Humidity;BMP_temperature;BMP_pressure;BME280_temperature;BME280_humidity;BME280_pressure;Samples;Min_cycle;Max_cycle;Signal;HPM_P1;HPM_P2
2021/11/27 00:01:02;;;;;;;57.80;28.55;;;;;;;-0.49;88.82;97530.07;1767943;79;20456;-70
2021/11/27 00:03:29;;;;;;;47.70;27.22;;;;;;;-0.51;88.78;97534.41;1767858;79;28907;-70
2021/11/27 00:05:57;;;;;;;54.00;28.00;;;;;;;-0.52;88.75;97532.75;1762431;79;21495;-70
2021/11/27 00:08:25;;;;;;;52.83;27.73;;;;;;;-0.51;88.72;97528.00;1771802;79;21014;-70
2021/11/27 00:10:55;;;;;;;47.58;26.65;;;;;;;-0.55;88.57;97523.90;1728820;81;21217;-70
2021/11/27 00:13:24;;;;;;;49.03;28.47;;;;;;;-0.57;88.61;97520.55;1772537;79;21031;-70
2021/11/27 00:15:52;;;;;;;47.00;27.67;;;;;;;-0.55;88.81;97520.05;1776163;79;20934;-70
2021/11/27 00:18:21;;;;;;;53.58;26.93;;;;;;;-0.51;88.95;97515.19;1764437;80;20946;-70
2021/11/27 00:20:53;;;;;;;45.38;25.70;;;;;;;-0.51;88.89;97517.30;1772437;79;20979;-70
2021/11/27 00:23:21;;;;;;;50.33;27.73;;;;;;;-0.55;88.69;97510.63;1764576;80;21458;-70
2021/11/27 00:25:48;;;;;;;55.38;27.85;;;;;;;-0.60;88.67;97506.57;1768228;80;21009;-70
2021/11/27 00:28:16;;;;;;;54.83;29.48;;;;;;;-0.64;88.75;97497.31;1758921;80;25005;-70
2021/11/27 00:30:44;;;;;;;62.20;29.30;;;;;;;-0.64;88.83;97497.31;1769983;80;21003;-70
2021/11/27 00:33:11;;;;;;;46.68;23.27;;;;;;;-0.64;88.88;97499.88;1761755;80;21018;-70
2021/11/27 00:35:38;;;;;;;42.35;23.07;;;;;;;-0.59;89.13;97503.11;1768147;79;21119;-70
2021/11/27 00:38:06;;;;;;;46.53;26.37;;;;;;;-0.50;89.27;97498.48;1772128;80;21022;-69
2021/11/27 00:40:36;;;;;;;48.42;26.00;;;;;;;-0.46;89.08;97499.19;1763686;80;20962;-70
2021/11/27 00:43:05;;;;;;;63.17;28.10;;;;;;;-0.47;88.92;97497.53;1764599;80;21048;-69
2021/11/27 00:45:32;;;;;;;49.75;27.50;;;;;;;-0.52;88.86;97499.43;1762165;80;21057;-71
2021/11/27 00:47:59;;;;;;;49.53;28.77;;;;;;;-0.56;88.83;97495.30;1762712;80;21852;-70
2021/11/27 00:50:31;;;;;;;45.58;21.75;;;;;;;-0.57;88.98;97496.20;1762736;80;28856;-70
2021/11/27 00:53:05;;;;;;;52.53;27.93;;;;;;;-0.55;88.99;97486.73;1763479;80;22343;-70
2021/11/27 00:55:34;;;;;;;38.15;22.67;;;;;;;-0.52;89.01;97489.17;1763866;80;21168;-70
2021/11/27 00:58:03;;;;;;;41.20;24.90;;;;;;;-0.56;88.81;97485.05;1766960;80;20935;-69
2021/11/27 01:00:33;;;;;;;49.48;26.10;;;;;;;-0.56;88.85;97487.61;1768028;80;21477;-70
2021/11/27 01:03:04;;;;;;;45.23;24.70;;;;;;;-0.65;88.63;97476.43;1765565;80;20976;-70
2021/11/27 01:05:33;;;;;;;45.88;24.80;;;;;;;-0.73;88.64;97476.30;1766476;80;20936;-70
2021/11/27 01:08:00;;;;;;;43.60;25.08;;;;;;;-0.76;88.85;97476.38;1769416;80;21617;-70
2021/11/27 01:10:32;;;;;;;39.40;24.10;;;;;;;-0.76;88.98;97476.38;1772442;78;21635;-70
2021/11/27 01:12:59;;;;;;;49.45;24.65;;;;;;;-0.77;88.96;97479.84;1765203;78;22901;-70
2021/11/27 01:15:30;;;;;;;59.38;27.93;;;;;;;-0.78;88.94;97473.06;1742511;81;22373;-71
2021/11/27 01:18:00;;;;;;;63.25;33.00;;;;;;;-0.78;88.96;97477.36;1728707;82;21352;-70
2021/11/27 01:20:32;;;;;;;67.65;33.78;;;;;;;-0.78;89.05;97471.78;1747479;80;21467;-70
2021/11/27 01:23:00;;;;;;;62.67;31.33;;;;;;;-0.79;89.07;97471.37;1754037;81;21608;-69
2021/11/27 01:25:27;;;;;;;65.37;33.35;;;;;;;-0.84;88.93;97470.73;1745179;81;21118;-69
2021/11/27 01:27:54;;;;;;;71.53;35.60;;;;;;;-0.91;88.86;97456.47;1749468;81;21134;-70
2021/11/27 01:30:22;;;;;;;66.25;32.30;;;;;;;-0.95;88.93;97465.18;1724765;81;21600;-70
2021/11/27 01:32:49;;;;;;;56.98;28.77;;;;;;;-0.93;89.27;97456.97;1753803;78;22202;-70
2021/11/27 01:35:16;;;;;;;50.00;26.10;;;;;;;-0.93;89.27;97456.97;1774279;78;21545;-69
2021/11/27 01:37:43;;;;;;;;;;;;;;;-0.88;89.33;97456.36;1774898;78;21080;-70
2021/11/27 01:40:15;;;;;;;52.53;25.73;;;;;;;-0.86;89.27;97462.27;1768496;78;20181;-70
2021/11/27 01:42:42;;;;;;;53.70;27.30;;;;;;;-0.87;89.21;97455.45;1766378;78;21315;-70
2021/11/27 01:45:11;;;;;;;51.10;27.25;;;;;;;-0.88;89.22;97453.80;1771890;78;22924;-69
2021/11/27 01:47:38;;;;;;;51.23;26.05;;;;;;;-0.88;89.26;97451.23;1745819;81;21077;-70
2021/11/27 01:50:08;;;;;;;45.15;23.57;;;;;;;-0.87;89.24;97450.33;1746545;80;21116;-70
2021/11/27 01:52:35;;;;;;;48.17;22.05;;;;;;;-0.85;89.36;97440.86;1714245;82;21041;-70
2021/11/27 01:55:02;;;;;;;40.60;20.40;;;;;;;-0.84;89.32;97437.43;1696829;82;21081;-70
2021/11/27 01:57:29;;;;;;;46.98;23.05;;;;;;;-0.85;89.31;97438.30;1768834;80;20997;-70
2021/11/27 01:59:58;;;;;;;44.27;22.95;;;;;;;-0.86;89.26;97431.52;1764998;80;20963;-70
2021/11/27 02:02:25;;;;;;;48.75;26.97;;;;;;;-0.90;89.13;97424.83;1766148;78;22294;-70
2021/11/27 02:04:52;;;;;;;49.77;25.57;;;;;;;-0.95;89.02;97428.03;1767816;78;20935;-70
2021/11/27 02:07:20;;;;;;;51.75;28.32;;;;;;;-1.00;88.97;97423.52;1763834;80;21592;-70
2021/11/27 02:09:47;;;;;;;50.08;24.65;;;;;;;-1.06;89.02;97427.60;1767104;80;21041;-69
2021/11/27 02:12:14;;;;;;;34.92;20.55;;;;;;;-1.07;89.14;97422.07;1758716;80;21030;-70
2021/11/27 02:14:43;;;;;;;37.25;20.43;;;;;;;-1.09;89.20;97416.16;1762169;80;21439;-70
2021/11/27 02:17:10;;;;;;;41.37;21.57;;;;;;;-1.07;89.26;97428.47;1759571;80;21604;-70
2021/11/27 02:19:37;;;;;;;39.80;23.05;;;;;;;-1.06;89.30;97422.03;1763861;78;21589;-69
2021/11/27 02:22:05;;;;;;;40.85;22.73;;;;;;;-1.05;89.32;97422.86;1759474;80;21099;-70
2021/11/27 02:24:32;;;;;;;45.83;25.30;;;;;;;-1.04;89.31;97421.50;1762808;80;21985;-70
2021/11/27 02:26:59;;;;;;;51.77;24.70;;;;;;;-1.01;89.33;97414.16;1769472;78;21591;-70
2021/11/27 02:29:29;;;;;;;56.23;25.12;;;;;;;-1.00;89.40;97419.23;1764601;80;20951;-70
2021/11/27 02:31:58;;;;;;;60.88;27.98;;;;;;;-0.96;89.57;97414.81;1760720;79;21103;-70
2021/11/27 02:34:26;;;;;;;56.23;26.50;;;;;;;-0.92;89.63;97406.97;1754852;80;21075;-69
2021/11/27 02:37:00;;;;;;;51.37;28.80;;;;;;;-0.88;89.55;97409.41;1760218;80;21149;-70
2021/11/27 02:39:30;;;;;;;63.23;31.40;;;;;;;-0.87;89.58;97404.21;1770361;78;21306;-70
2021/11/27 02:41:57;;;;;;;65.32;31.93;;;;;;;-0.84;89.54;97400.70;1757722;80;20999;-70
2021/11/27 02:44:28;;;;;;;68.57;32.53;;;;;;;-0.79;89.74;97406.03;1763950;80;21034;-70
2021/11/27 02:46:55;;;;;;;67.75;32.40;;;;;;;-0.74;89.84;97401.57;1767597;80;21017;-70
2021/11/27 02:49:23;;;;;;;68.30;32.60;;;;;;;-0.66;89.96;97399.17;1766954;79;21201;-70
2021/11/27 02:51:50;;;;;;;59.08;33.67;;;;;;;-0.60;89.96;97401.48;1740478;81;22305;-70
2021/11/27 02:54:18;;;;;;;68.02;33.23;;;;;;;-0.59;89.81;97399.30;1766295;78;21039;-70
2021/11/27 02:56:46;;;;;;;67.92;32.33;;;;;;;-0.59;89.72;97398.02;1764936;80;21006;-70
2021/11/27 02:59:21;;;;;;;62.23;31.23;;;;;;;-0.60;89.66;97399.75;1769059;78;21089;-70
2021/11/27 03:01:52;;;;;;;66.25;28.90;;;;;;;-0.60;89.56;97404.05;1764556;78;20963;-70
2021/11/27 03:04:20;;;;;;;54.73;27.55;;;;;;;-0.65;89.39;97403.39;1763337;78;21755;-70
2021/11/27 03:06:48;;;;;;;49.60;27.37;;;;;;;-0.70;89.35;97408.27;1749631;80;21073;-70
2021/11/27 03:09:17;;;;;;;64.58;28.92;;;;;;;-0.72;89.36;97412.60;1770809;80;21621;-70
2021/11/27 03:11:49;;;;;;;59.23;30.08;;;;;;;-0.74;89.38;97410.54;1763832;80;21117;-70
2021/11/27 03:14:18;;;;;;;60.45;30.72;;;;;;;-0.75;89.43;97416.57;1769242;80;21010;-70
2021/11/27 03:16:45;;;;;;;56.65;28.83;;;;;;;-0.75;89.53;97414.01;1765684;80;21085;-69
2021/11/27 03:19:13;;;;;;;57.98;29.85;;;;;;;-0.76;89.62;97405.91;1762290;80;21630;-70
2021/11/27 03:21:40;;;;;;;56.30;30.10;;;;;;;-0.73;89.68;97414.80;1769031;80;21620;-70
2021/11/27 03:24:08;;;;;;;49.73;28.10;;;;;;;-0.71;89.86;97414.27;1731831;82;21604;-70
2021/11/27 03:26:34;;;;;;;;;;;;;;;-0.66;89.87;97414.55;1729704;81;21147;-70
2021/11/27 03:29:01;;;;;;;58.80;29.50;;;;;;;-0.62;90.00;97421.20;1728873;81;21462;-70
2021/11/27 03:31:28;;;;;;;65.15;29.60;;;;;;;-0.56;90.10;97423.52;1749836;80;21091;-70
2021/11/27 03:33:55;;;;;;;56.95;29.57;;;;;;;-0.54;90.04;97420.46;1711056;82;20983;-70
2021/11/27 03:36:22;;;;;;;60.43;29.90;;;;;;;-0.49;90.16;97423.23;1740157;81;21734;-70
2021/11/27 03:38:49;;;;;;;61.63;30.32;;;;;;;-0.40;90.33;97416.90;1739840;80;21137;-70
2021/11/27 03:41:17;;;;;;;59.33;29.63;;;;;;;-0.35;90.27;97414.16;1762976;79;22322;-70
2021/11/27 03:43:45;;;;;;;59.33;30.82;;;;;;;-0.35;90.09;97420.12;1769596;79;21037;-70
2021/11/27 03:46:12;;;;;;;;;;;;;;;-0.33;90.21;97423.47;1764682;80;21003;-70
2021/11/27 03:48:42;;;;;;;61.40;31.50;;;;;;;-0.33;90.08;97420.90;1767884;78;20141;-70
2021/11/27 03:51:14;;;;;;;61.65;30.48;;;;;;;-0.34;90.02;97419.21;1758382;80;21514;-70
2021/11/27 03:53:43;;;;;;;59.15;29.87;;;;;;;-0.34;90.02;97424.34;1758550;80;21605;-70
2021/11/27 03:56:14;;;;;;;58.87;29.65;;;;;;;-0.32;90.10;97425.13;1763795;80;21007;-70
2021/11/27 03:58:41;;;;;;;51.08;27.67;;;;;;;-0.30;90.13;97425.91;1755788;80;22491;-70
2021/11/27 04:01:12;;;;;;;50.03;25.15;;;;;;;-0.29;90.09;97432.69;1768286;79;21556;-70
2021/11/27 04:03:41;;;;;;;62.75;32.17;;;;;;;-0.27;90.13;97430.91;1760181;80;21054;-70
2021/11/27 04:06:08;;;;;;;70.12;32.13;;;;;;;-0.25;90.27;97429.12;1762059;80;22464;-71
2021/11/27 04:08:36;;;;;;;66.30;33.60;;;;;;;-0.16;90.41;97442.47;1764261;78;21054;-70
2021/11/27 04:11:03;;;;;;;68.97;32.08;;;;;;;-0.14;90.30;97434.25;1773851;78;21006;-70
2021/11/27 04:13:30;;;;;;;64.55;31.68;;;;;;;-0.17;90.21;97435.66;1759591;78;21090;-70
2021/11/27 04:15:57;;;;;;;56.50;28.50;;;;;;;-0.26;90.36;97422.30;1768204;78;20970;-70
2021/11/27 04:18:24;;;;;;;63.58;29.60;;;;;;;-0.26;90.36;97422.30;1763438;80;22296;-70
2021/11/27 04:20:52;;;;;;;56.13;29.18;;;;;;;-0.14;90.19;97440.66;1765751;80;21567;-70
2021/11/27 04:23:20;;;;;;;53.98;28.10;;;;;;;-0.13;90.24;97439.78;1765188;79;22187;-69
2021/11/27 04:25:47;;;;;;;61.28;30.40;;;;;;;-0.12;90.15;97441.44;1761052;79;21176;-70
2021/11/27 04:28:15;;;;;;;52.15;27.62;;;;;;;-0.14;90.07;97439.37;1762968;80;20991;-70
2021/11/27 04:30:43;;;;;;;53.02;27.15;;;;;;;-0.15;90.06;97446.70;1765365;80;21791;-70
2021/11/27 04:33:12;;;;;;;58.02;27.85;;;;;;;-0.16;90.05;97439.91;1765183;80;21006;-70
2021/11/27 04:35:40;;;;;;;46.33;26.50;;;;;;;-0.16;90.07;97439.91;1767661;80;21572;-69
2021/11/27 04:38:09;;;;;;;44.30;25.85;;;;;;;-0.18;90.15;97438.67;1761959;80;21083;-69
2021/11/27 04:40:37;;;;;;;56.08;26.77;;;;;;;-0.18;90.16;97434.00;1757885;80;21529;-69
2021/11/27 04:43:04;;;;;;;53.98;27.90;;;;;;;-0.17;90.19;97446.74;1740217;80;21062;-69
2021/11/27 04:45:32;;;;;;;51.35;26.37;;;;;;;-0.16;90.23;97439.91;1761757;80;20930;-69
2021/11/27 04:48:00;;;;;;;51.25;25.35;;;;;;;-0.15;90.25;97435.16;1762592;80;21072;-69
2021/11/27 04:50:29;;;;;;;40.20;24.18;;;;;;;-0.14;90.30;97444.08;1771269;80;21107;-69
2021/11/27 04:52:57;;;;;;;53.58;25.32;;;;;;;-0.10;90.38;97439.66;1766109;80;21560;-69
2021/11/27 04:55:24;;;;;;;47.67;26.00;;;;;;;-0.07;90.28;97440.80;1767148;80;21094;-69
2021/11/27 04:57:51;;;;;;;44.63;25.48;;;;;;;-0.06;90.29;97436.05;1766589;78;26735;-69
2021/11/27 05:00:23;;;;;;;47.53;27.62;;;;;;;-0.01;90.44;97434.96;1759024;80;21003;-69
2021/11/27 05:02:50;;;;;;;48.10;26.85;;;;;;;-0.01;90.31;97440.09;1763860;80;20974;-69
2021/11/27 05:05:17;;;;;;;50.48;26.85;;;;;;;-0.01;90.33;97445.22;1764526;78;21090;-69
2021/11/27 05:07:45;;;;;;;50.12;26.30;;;;;;;-0.01;90.33;97441.83;1764928;80;22271;-69
2021/11/27 05:10:12;;;;;;;49.20;29.30;;;;;;;-0.01;90.29;97441.83;1760609;80;21100;-69
2021/11/27 05:12:40;;;;;;;48.68;29.27;;;;;;;0.01;90.52;97436.20;1767311;78;21523;-69
2021/11/27 05:15:08;;;;;;;47.03;29.90;;;;;;;0.09;90.67;97428.19;1770665;80;21007;-69
2021/11/27 05:17:35;;;;;;;51.10;28.92;;;;;;;0.15;90.73;97435.17;1763123;78;20902;-69
2021/11/27 05:20:03;;;;;;;44.53;27.98;;;;;;;0.18;90.73;97432.47;1766619;80;21442;-69
2021/11/27 05:22:31;;;;;;;44.85;27.58;;;;;;;0.21;90.76;97433.63;1765059;80;20981;-69
2021/11/27 05:24:59;;;;;;;47.05;29.35;;;;;;;0.23;90.69;97434.03;1762889;80;20980;-69
2021/11/27 05:27:27;;;;;;;53.65;31.33;;;;;;;0.25;90.68;97432.20;1771862;78;21553;-69
2021/11/27 05:29:54;;;;;;;60.83;34.15;;;;;;;0.27;90.58;97430.42;1764880;80;20997;-69
2021/11/27 05:32:24;;;;;;;52.90;30.75;;;;;;;0.23;90.40;97434.03;1758367;78;22183;-68
2021/11/27 05:34:50;;;;;;;49.33;29.48;;;;;;;0.12;90.30;97434.02;1761004;78;21015;-69
2021/11/27 05:37:18;;;;;;;45.43;27.67;;;;;;;0.04;90.38;97436.06;1769683;80;26627;-68
2021/11/27 05:39:46;;;;;;;46.02;28.35;;;;;;;-0.01;90.44;97427.27;1763698;80;21038;-69
2021/11/27 05:42:14;;;;;;;46.18;29.65;;;;;;;-0.02;90.57;97432.02;1762935;80;21072;-69
2021/11/27 05:44:44;;;;;;;44.85;29.60;;;;;;;-0.02;90.61;97424.78;1762632;80;21894;-68
2021/11/27 05:47:11;;;;;;;48.58;29.15;;;;;;;0.00;90.68;97426.84;1743995;80;21600;-69
2021/11/27 05:49:38;;;;;;;45.70;28.47;;;;;;;-0.01;90.69;97423.88;1760213;80;21055;-69
2021/11/27 05:52:07;;;;;;;43.85;28.17;;;;;;;-0.02;90.65;97426.06;1762633;80;24006;-69
2021/11/27 05:54:34;;;;;;;42.30;27.58;;;;;;;-0.03;90.70;97428.23;1768518;79;21251;-69
2021/11/27 05:57:02;;;;;;;42.75;27.02;;;;;;;-0.05;90.72;97425.73;1764132;78;21050;-68
2021/11/27 05:59:29;;;;;;;41.50;27.32;;;;;;;-0.03;90.77;97428.23;1761406;80;21050;-68
2021/11/27 06:01:56;;;;;;;46.13;27.75;;;;;;;-0.01;90.85;97426.44;1762154;80;20979;-68
2021/11/27 06:04:24;;;;;;;44.83;28.57;;;;;;;0.02;90.83;97426.30;1767341;80;20937;-69
2021/11/27 06:06:52;;;;;;;47.30;27.32;;;;;;;0.05;90.84;97423.61;1764092;80;21090;-69
2021/11/27 06:09:19;;;;;;;48.20;27.37;;;;;;;0.14;91.21;97423.25;1762511;78;21466;-69
2021/11/27 06:11:47;;;;;;;47.05;28.17;;;;;;;0.23;91.15;97418.63;1763839;80;21824;-70
2021/11/27 06:14:14;;;;;;;43.30;28.13;;;;;;;0.26;91.10;97426.20;1761101;80;21064;-70
2021/11/27 06:16:40;;;;;;;48.10;28.57;;;;;;;0.26;91.03;97424.91;1764232;80;21040;-70
2021/11/27 06:19:07;;;;;;;46.48;29.18;;;;;;;0.23;91.00;97425.05;1767611;80;21001;-70
2021/11/27 06:21:35;;;;;;;48.07;29.50;;;;;;;0.21;90.97;97422.08;1766357;78;21064;-69
2021/11/27 06:24:02;;;;;;;42.73;28.32;;;;;;;0.23;90.98;97421.20;1770835;80;21053;-70
2021/11/27 06:26:29;;;;;;;41.42;26.97;;;;;;;0.23;90.97;97426.33;1764578;80;21533;-70
2021/11/27 06:28:56;;;;;;;37.23;25.48;;;;;;;0.20;90.84;97427.29;1772144;80;21547;-70
2021/11/27 06:31:23;;;;;;;39.83;26.50;;;;;;;0.19;90.86;97426.43;1766056;78;21065;-71
2021/11/27 06:33:49;;;;;;;40.15;26.15;;;;;;;0.20;90.91;97433.25;1760784;79;21439;-69
2021/11/27 06:36:16;;;;;;;38.93;24.47;;;;;;;0.26;91.15;97432.61;1761328;78;21640;-70
2021/11/27 06:38:43;;;;;;;38.10;24.60;;;;;;;0.32;91.27;97436.20;1765185;80;21517;-71
2021/11/27 06:41:10;;;;;;;43.80;26.97;;;;;;;0.31;91.03;97437.94;1763687;78;20990;-71
2021/11/27 06:43:37;;;;;;;41.30;26.15;;;;;;;0.29;90.94;97440.18;1766171;80;21115;-69
2021/11/27 06:46:04;;;;;;;43.28;26.65;;;;;;;0.28;91.06;97442.34;1760742;79;21671;-70
2021/11/27 06:48:31;;;;;;;46.10;28.40;;;;;;;0.26;90.96;97446.73;1756294;79;21084;-70
2021/11/27 06:50:58;;;;;;;48.02;29.20;;;;;;;0.23;90.91;97446.86;1770106;79;21571;-70
2021/11/27 06:53:27;;;;;;;51.07;29.97;;;;;;;0.23;91.09;97446.86;1737256;81;21573;-70
2021/11/27 06:55:55;;;;;;;56.28;31.45;;;;;;;0.27;91.16;97450.95;1760645;80;21021;-71
2021/11/27 06:58:22;;;;;;;49.93;28.35;;;;;;;0.26;91.08;97446.73;1765186;80;21564;-69
2021/11/27 07:00:49;;;;;;;49.20;28.12;;;;;;;0.26;91.16;97457.00;1718253;81;21009;-70
2021/11/27 07:03:21;;;;;;;55.05;30.70;;;;;;;0.28;91.20;97453.47;1753619;80;22267;-70
2021/11/27 07:05:47;;;;;;;49.70;29.70;;;;;;;0.32;91.26;97457.56;1772471;78;21060;-70
2021/11/27 07:08:14;;;;;;;47.23;31.83;;;;;;;0.32;91.14;97462.70;1766364;80;21046;-70
2021/11/27 07:10:43;;;;;;;40.95;28.17;;;;;;;0.35;91.32;97466.87;1764760;78;21522;-70
2021/11/27 07:13:10;;;;;;;49.08;30.05;;;;;;;0.39;91.36;97466.69;1768871;78;21627;-69
2021/11/27 07:15:37;;;;;;;48.08;30.30;;;;;;;0.42;91.30;97461.84;1768961;78;21306;-71
2021/11/27 07:18:05;;;;;;;47.40;29.52;;;;;;;0.45;91.21;97469.44;1765742;78;21592;-70
2021/11/27 07:20:33;;;;;;;53.33;32.55;;;;;;;0.46;91.13;97467.25;1769522;78;20997;-70
2021/11/27 07:23:00;;;;;;;;;;;;;;;0.47;91.15;97466.34;1770175;80;21795;-71
2021/11/27 07:25:30;;;;;;;72.50;39.00;;;;;;;0.51;91.39;97462.75;1765661;78;20598;-71
2021/11/27 07:27:56;;;;;;;62.83;35.88;;;;;;;0.59;91.49;97470.97;1727095;81;20950;-71
2021/11/27 07:30:24;;;;;;;;;;;;;;;0.66;91.55;97467.67;1747160;80;20994;-71
2021/11/27 07:32:50;;;;;;;61.85;40.05;;;;;;;0.73;91.52;97473.36;1772351;78;20564;-72
2021/11/27 07:35:17;;;;;;;57.10;36.50;;;;;;;0.76;91.44;97481.80;1772041;78;21054;-69
2021/11/27 07:37:44;;;;;;;58.80;36.70;;;;;;;0.71;91.17;97479.04;1774459;78;20983;-70
2021/11/27 07:40:12;;;;;;;52.65;34.98;;;;;;;0.66;91.11;97489.05;1731278;80;28224;-70
2021/11/27 07:42:39;;;;;;;55.45;32.93;;;;;;;0.66;91.07;97490.33;1748672;80;28801;-69
2021/11/27 07:45:07;;;;;;;53.30;33.45;;;;;;;0.64;91.09;97492.16;1771119;80;21078;-69
2021/11/27 07:47:35;;;;;;;48.15;30.82;;;;;;;0.65;91.16;97493.81;1721427;81;22203;-70
2021/11/27 07:50:06;;;;;;;44.50;29.67;;;;;;;0.69;91.29;97499.64;1744052;81;21123;-69
2021/11/27 07:52:33;;;;;;;45.58;27.85;;;;;;;0.69;91.04;97498.81;1763377;80;21021;-69
2021/11/27 07:55:00;;;;;;;42.33;28.50;;;;;;;0.67;90.94;97495.01;1762884;78;21746;-70
2021/11/27 07:57:27;;;;;;;45.20;30.77;;;;;;;0.64;91.26;97487.02;1767174;80;21018;-70
2021/11/27 07:59:54;;;;;;;46.85;30.23;;;;;;;0.64;91.26;97487.02;1766244;80;22202;-70
2021/11/27 08:02:21;;;;;;;48.47;31.33;;;;;;;0.85;91.49;97501.11;1764546;80;20892;-70
2021/11/27 08:04:48;;;;;;;49.58;29.55;;;;;;;0.86;91.19;97505.33;1765244;80;21013;-69
2021/11/27 08:07:15;;;;;;;43.25;29.48;;;;;;;0.89;91.36;97506.48;1763356;80;21048;-70
2021/11/27 08:09:42;;;;;;;43.17;28.95;;;;;;;0.94;91.50;97509.69;1769155;80;21566;-70
2021/11/27 08:12:10;;;;;;;41.37;27.62;;;;;;;0.95;91.28;97516.48;1746318;80;21709;-70
2021/11/27 08:14:36;;;;;;;;;;;;;;;0.96;91.29;97518.17;1749285;81;21045;-70
2021/11/27 08:17:03;;;;;;;51.92;28.02;;;;;;;1.01;91.49;97520.09;1745988;81;20148;-70
2021/11/27 08:19:30;;;;;;;40.85;28.80;;;;;;;1.09;91.62;97520.59;1728234;81;21015;-70
2021/11/27 08:21:56;;;;;;;43.02;27.90;;;;;;;1.14;91.58;97520.83;1748121;81;21056;-71
2021/11/27 08:24:25;;;;;;;42.23;29.33;;;;;;;1.13;91.27;97521.73;1770389;78;21736;-70
2021/11/27 08:26:52;;;;;;;41.33;29.18;;;;;;;1.07;90.98;97522.39;1765542;78;20998;-69
2021/11/27 08:30:15;;;;;;;41.85;28.27;;;;;;;1.02;90.85;97520.47;1858623;76;23455;-70
2021/11/27 08:32:49;;;;;;;42.78;28.77;;;;;;;0.92;90.83;97529.47;1818777;77;21566;-69
2021/11/27 08:35:17;;;;;;;42.00;27.77;;;;;;;0.88;90.89;97522.81;1797838;78;21629;-69
2021/11/27 08:37:44;;;;;;;39.67;27.27;;;;;;;0.90;91.04;97524.87;1817011;78;20931;-69
2021/11/27 08:40:12;;;;;;;43.60;27.77;;;;;;;0.90;91.05;97531.30;1820786;77;21036;-69
2021/11/27 08:42:39;;;;;;;42.38;28.83;;;;;;;0.91;91.15;97526.98;1820686;77;20958;-69
2021/11/27 08:45:08;;;;;;;46.73;29.12;;;;;;;0.96;91.41;97527.16;1718150;80;21150;-69
2021/11/27 08:47:34;;;;;;;42.25;27.52;;;;;;;0.99;91.26;97533.45;1759116;79;21296;-71
2021/11/27 08:50:01;;;;;;;38.75;26.45;;;;;;;1.02;91.20;97530.75;1777517;79;20986;-69
2021/11/27 08:52:28;;;;;;;43.13;28.55;;;;;;;1.01;91.02;97523.95;1762780;80;21639;-69
2021/11/27 08:54:55;;;;;;;48.60;29.98;;;;;;;0.99;90.92;97523.17;1766254;80;22286;-69
2021/11/27 08:57:24;;;;;;;44.70;29.63;;;;;;;1.02;91.18;97525.61;1762301;80;21118;-70
2021/11/27 08:59:51;;;;;;;43.33;27.73;;;;;;;1.20;91.70;97530.83;1760929;79;21120;-70
2021/11/27 09:02:19;;;;;;;44.48;28.20;;;;;;;1.29;91.63;97527.41;1770831;79;20992;-71
2021/11/27 09:04:46;;;;;;;42.38;27.25;;;;;;;1.32;91.35;97531.13;1770053;79;21196;-71
2021/11/27 09:07:13;;;;;;;40.55;28.42;;;;;;;1.33;91.21;97533.25;1764991;80;21057;-71
2021/11/27 09:09:40;;;;;;;39.10;28.70;;;;;;;1.31;90.95;97541.47;1758883;79;21088;-72
2021/11/27 09:12:08;;;;;;;36.65;26.35;;;;;;;1.30;90.98;97541.92;1741625;80;22331;-71
2021/11/27 09:14:35;;;;;;;35.63;26.12;;;;;;;1.31;91.08;97544.04;1764053;80;21071;-71
